Time;durP1;ratioP1;P1;durP2;ratioP2;P2;SDS_P1;SDS_P2;PMS_P1;PMS_P2;Temp;Humidity;BMP_temperature;BMP_pressure;BME280_temperature;BME280_humidity;BME280_pressure;Samples;Min_cycle;Max_cycle;Signal;HPM_P1;HPM_P2
2022/06/05 00:01:15;;;;;;;19.17;9.38;;;;;;;;;;5088277;28;20046;-67
2022/06/05 00:03:53;;;;;;;15.02;9.50;;;;;;;;;;5081863;28;20048;-67
2022/06/05 00:06:42;;;;;;;17.33;9.93;;;;;;;;;;5087584;28;20040;-67
2022/06/05 00:09:13;;;;;;;13.70;9.23;;;;;;;;;;5043891;28;20096;-68
2022/06/05 00:11:59;;;;;;;18.77;10.73;;;;;;;;;;5081994;28;20466;-68
2022/06/05 00:14:25;;;;;;;19.15;11.82;;;;;;;;;;5081899;28;20043;-68
2022/06/05 00:16:51;;;;;;;20.40;10.57;;;;;;;;;;5075839;28;20045;-68
2022/06/05 00:19:17;;;;;;;16.13;10.50;;;;;;;;;;5088113;28;20085;-68
2022/06/05 00:21:43;;;;;;;16.52;10.20;;;;;;;;;;5089093;28;20101;-68
2022/06/05 00:24:09;;;;;;;17.02;10.75;;;;;;;;;;5090491;28;20044;-68
2022/06/05 00:26:43;;;;;;;19.23;10.50;;;;;;;;;;5081462;28;20489;-68
2022/06/05 00:29:13;;;;;;;20.85;10.85;;;;;;;;;;5083735;28;20123;-68
2022/06/05 00:31:39;;;;;;;16.55;10.65;;;;;;;;;;5091343;28;20115;-68
2022/06/05 00:34:05;;;;;;;22.02;11.70;;;;;;;;;;5090550;28;20107;-68
2022/06/05 00:36:40;;;;;;;15.90;10.82;;;;;;;;;;5087840;28;20039;-68
2022/06/05 00:39:19;;;;;;;17.33;10.60;;;;;;;;;;5086841;28;20512;-68
2022/06/05 00:41:52;;;;;;;16.00;10.43;;;;;;;;;;5090764;28;20121;-68
2022/06/05 00:44:22;;;;;;;17.50;10.60;;;;;;;;;;5081979;28;20036;-67
2022/06/05 00:46:50;;;;;;;19.50;10.90;;;;;;;;;;5087985;28;20044;-68
2022/06/05 00:49:17;;;;;;;18.63;11.02;;;;;;;;;;5089357;28;20047;-68
2022/06/05 00:51:43;;;;;;;18.60;10.82;;;;;;;;;;5094918;28;20503;-68
2022/06/05 00:54:09;;;;;;;18.63;10.75;;;;;;;;;;5090592;28;20082;-68
2022/06/05 00:56:35;;;;;;;18.85;11.27;;;;;;;;;;5087777;28;20481;-68
2022/06/05 00:59:01;;;;;;;19.35;11.30;;;;;;;;;;5086877;28;20036;-67
2022/06/05 01:01:27;;;;;;;21.38;10.95;;;;;;;;;;5090945;28;20711;-68
2022/06/05 01:04:00;;;;;;;18.40;11.18;;;;;;;;;;5087346;28;20039;-68
2022/06/05 01:06:26;;;;;;;22.90;12.30;;;;;;;;;;5087669;28;20047;-68
2022/06/05 01:08:52;;;;;;;21.73;11.40;;;;;;;;;;5087322;28;20028;-68
2022/06/05 01:11:21;;;;;;;18.27;11.82;;;;;;;;;;5086991;28;20036;-68
2022/06/05 01:13:47;;;;;;;21.58;11.43;;;;;;;;;;5087902;28;20554;-68
2022/06/05 01:16:33;;;;;;;19.42;11.52;;;;;;;;;;5090440;28;20040;-68
2022/06/05 01:19:03;;;;;;;18.45;11.27;;;;;;;;;;5075177;28;20046;-68
2022/06/05 01:21:44;;;;;;;18.95;11.25;;;;;;;;;;5091269;28;20116;-67
2022/06/05 01:24:23;;;;;;;20.65;11.20;;;;;;;;;;5068456;28;20040;-68
2022/06/05 01:26:52;;;;;;;22.20;11.40;;;;;;;;;;5090190;28;20481;-68
2022/06/05 01:29:21;;;;;;;20.83;12.00;;;;;;;;;;5071786;28;20043;-67
2022/06/05 01:31:59;;;;;;;19.98;11.15;;;;;;;;;;5088064;28;20089;-68
2022/06/05 01:34:36;;;;;;;19.08;11.35;;;;;;;;;;5088453;28;20036;-68
2022/06/05 01:37:02;;;;;;;19.42;11.45;;;;;;;;;;5084088;28;20039;-68
2022/06/05 01:39:41;;;;;;;21.85;12.25;;;;;;;;;;5092513;28;20035;-67
2022/06/05 01:42:13;;;;;;;21.33;11.18;;;;;;;;;;5087321;28;20038;-68
2022/06/05 01:44:42;;;;;;;20.02;12.20;;;;;;;;;;5087256;28;20096;-67
2022/06/05 01:47:12;;;;;;;24.73;13.23;;;;;;;;;;5068617;28;20036;-68
2022/06/05 01:49:38;;;;;;;20.70;12.23;;;;;;;;;;5087197;28;20111;-67
2022/06/05 01:52:19;;;;;;;21.05;12.20;;;;;;;;;;5089908;28;20527;-68
2022/06/05 01:54:50;;;;;;;22.23;12.93;;;;;;;;;;5086265;28;20039;-68
2022/06/05 01:57:17;;;;;;;23.48;12.20;;;;;;;;;;5090695;28;20119;-68
2022/06/05 01:59:52;;;;;;;24.95;12.80;;;;;;;;;;5086952;28;20047;-68
2022/06/05 02:05:03;;;;;;;23.17;12.40;;;;;;;;;;5085837;28;20044;-61
2022/06/05 02:07:33;;;;;;;21.10;12.25;;;;;;;;;;5085761;28;20052;-61
2022/06/05 02:10:02;;;;;;;25.67;12.70;;;;;;;;;;5086103;28;20044;-61
2022/06/05 02:12:28;;;;;;;25.63;12.93;;;;;;;;;;5090088;28;20032;-61
2022/06/05 02:14:55;;;;;;;23.33;13.60;;;;;;;;;;5105763;28;20088;-61
2022/06/05 02:17:21;;;;;;;26.67;13.60;;;;;;;;;;5107583;28;20055;-61
2022/06/05 02:19:48;;;;;;;26.05;13.45;;;;;;;;;;5105892;28;20043;-60
2022/06/05 02:22:26;;;;;;;23.67;13.05;;;;;;;;;;5107889;28;20032;-61
2022/06/05 02:24:54;;;;;;;27.65;14.05;;;;;;;;;;5105079;27;20086;-61
2022/06/05 02:27:24;;;;;;;24.10;13.68;;;;;;;;;;5109120;28;20090;-61
2022/06/05 02:29:50;;;;;;;24.75;14.02;;;;;;;;;;5107341;28;20035;-61
2022/06/05 02:32:26;;;;;;;27.85;14.55;;;;;;;;;;5107530;28;20038;-61
2022/06/05 02:35:07;;;;;;;24.08;13.88;;;;;;;;;;5105392;27;20036;-61
2022/06/05 02:37:44;;;;;;;26.77;14.20;;;;;;;;;;5108581;28;20035;-61
2022/06/05 02:40:16;;;;;;;23.00;13.27;;;;;;;;;;5104954;28;20599;-61
2022/06/05 02:42:48;;;;;;;25.90;14.07;;;;;;;;;;5105676;27;20070;-61
2022/06/05 02:45:27;;;;;;;26.02;13.55;;;;;;;;;;5108766;28;20035;-61
2022/06/05 02:48:07;;;;;;;28.25;15.13;;;;;;;;;;5104381;28;20048;-61
2022/06/05 02:50:44;;;;;;;28.08;14.57;;;;;;;;;;5105333;28;20553;-61
2022/06/05 02:53:11;;;;;;;26.17;13.98;;;;;;;;;;5104981;28;20043;-61
2022/06/05 02:55:37;;;;;;;29.52;14.50;;;;;;;;;;5105663;28;20391;-61
2022/06/05 02:58:03;;;;;;;26.10;13.93;;;;;;;;;;5103619;28;20051;-61
2022/06/05 03:00:31;;;;;;;29.65;14.80;;;;;;;;;;5104166;28;20483;-61
2022/06/05 03:05:42;;;;;;;26.60;14.35;;;;;;;;;;5107329;28;20079;-61
2022/06/05 03:08:10;;;;;;;31.27;14.38;;;;;;;;;;5109360;28;20403;-61
2022/06/05 03:10:36;;;;;;;26.65;13.75;;;;;;;;;;5111737;28;20043;-62
2022/06/05 03:13:02;;;;;;;30.27;14.32;;;;;;;;;;5111850;28;20122;-62
2022/06/05 03:15:29;;;;;;;29.05;14.57;;;;;;;;;;5110660;28;20042;-61
2022/06/05 03:17:55;;;;;;;26.48;14.23;;;;;;;;;;5108630;28;20043;-61
2022/06/05 03:20:21;;;;;;;26.50;13.43;;;;;;;;;;5106739;28;20127;-62
2022/06/05 03:22:47;;;;;;;28.38;14.27;;;;;;;;;;5107472;28;20120;-62
2022/06/05 03:25:17;;;;;;;26.67;14.80;;;;;;;;;;5105370;28;20043;-62
2022/06/05 03:27:43;;;;;;;30.13;14.80;;;;;;;;;;5106773;27;20438;-62
2022/06/05 03:30:10;;;;;;;26.65;13.93;;;;;;;;;;5106527;28;20035;-62
2022/06/05 03:32:36;;;;;;;30.02;14.90;;;;;;;;;;5105604;28;20044;-62
2022/06/05 03:35:02;;;;;;;25.63;14.43;;;;;;;;;;5105951;28;20043;-62
2022/06/05 03:37:28;;;;;;;27.45;14.30;;;;;;;;;;5106402;28;20031;-62
2022/06/05 03:39:54;;;;;;;27.73;15.32;;;;;;;;;;5107126;28;20043;-61
2022/06/05 03:42:20;;;;;;;30.13;14.43;;;;;;;;;;5107189;28;20035;-62
2022/06/05 03:44:46;;;;;;;27.67;14.77;;;;;;;;;;5108174;27;20122;-62
2022/06/05 03:47:13;;;;;;;30.50;14.57;;;;;;;;;;5092007;28;20111;-62
2022/06/05 03:49:39;;;;;;;26.48;15.07;;;;;;;;;;5112019;28;20085;-62
2022/06/05 03:52:06;;;;;;;27.60;14.98;;;;;;;;;;5110876;28;20043;-62
2022/06/05 03:54:33;;;;;;;25.42;14.45;;;;;;;;;;5106772;28;20063;-62
2022/06/05 03:56:59;;;;;;;27.35;14.65;;;;;;;;;;5107001;28;20051;-62
2022/06/05 03:59:25;;;;;;;27.27;13.98;;;;;;;;;;5109538;28;20071;-62
2022/06/05 04:01:51;;;;;;;25.92;15.38;;;;;;;;;;5086899;28;20044;-61
2022/06/05 04:04:17;;;;;;;29.40;14.85;;;;;;;;;;5104000;28;20404;-62
2022/06/05 04:06:44;;;;;;;25.63;13.93;;;;;;;;;;5106930;28;20039;-62
2022/06/05 04:09:10;;;;;;;24.23;13.90;;;;;;;;;;5107196;28;20036;-62
2022/06/05 04:11:37;;;;;;;24.55;13.60;;;;;;;;;;5107381;28;20058;-62
2022/06/05 04:14:03;;;;;;;27.42;13.80;;;;;;;;;;5105153;28;20036;-62
2022/06/05 04:16:30;;;;;;;29.73;14.85;;;;;;;;;;5103387;28;20043;-62
2022/06/05 04:18:57;;;;;;;27.05;13.73;;;;;;;;;;5106012;28;20043;-62
2022/06/05 04:21:24;;;;;;;27.95;14.82;;;;;;;;;;5108603;28;20035;-62
2022/06/05 04:23:51;;;;;;;29.25;15.25;;;;;;;;;;5104174;28;20044;-62
2022/06/05 04:26:18;;;;;;;26.40;14.63;;;;;;;;;;5104275;28;20043;-62
2022/06/05 04:28:45;;;;;;;27.92;14.85;;;;;;;;;;5106479;28;20039;-62
2022/06/05 04:31:21;;;;;;;26.88;15.00;;;;;;;;;;5106603;28;20032;-62
2022/06/05 04:33:48;;;;;;;26.75;14.20;;;;;;;;;;5101448;28;20046;-62
2022/06/05 04:36:14;;;;;;;26.25;14.57;;;;;;;;;;5109218;28;20123;-62
2022/06/05 04:38:40;;;;;;;27.35;14.57;;;;;;;;;;5108299;28;20131;-62
2022/06/05 04:41:06;;;;;;;30.08;14.43;;;;;;;;;;5104039;28;20092;-62
2022/06/05 04:43:32;;;;;;;28.83;14.98;;;;;;;;;;5101543;28;20043;-62
2022/06/05 04:45:58;;;;;;;30.92;15.32;;;;;;;;;;5105704;28;20468;-62
2022/06/05 04:48:24;;;;;;;26.75;14.48;;;;;;;;;;5103173;28;20040;-62
2022/06/05 04:50:51;;;;;;;23.92;13.82;;;;;;;;;;5104535;28;20123;-62
2022/06/05 04:53:17;;;;;;;26.52;15.05;;;;;;;;;;5106029;28;20036;-62
2022/06/05 04:55:43;;;;;;;25.52;14.35;;;;;;;;;;5104149;28;20035;-62
2022/06/05 04:58:09;;;;;;;27.55;14.40;;;;;;;;;;5109426;28;20043;-62
2022/06/05 05:00:35;;;;;;;25.30;14.43;;;;;;;;;;5106473;28;20255;-63
2022/06/05 05:03:01;;;;;;;27.40;14.75;;;;;;;;;;5108685;28;21482;-62
2022/06/05 05:05:27;;;;;;;24.25;13.00;;;;;;;;;;5108002;28;20035;-62
2022/06/05 05:07:53;;;;;;;26.60;14.70;;;;;;;;;;5105385;28;20392;-62
2022/06/05 05:10:19;;;;;;;22.15;14.35;;;;;;;;;;5104326;28;20036;-62
2022/06/05 05:12:45;;;;;;;22.58;13.25;;;;;;;;;;5102989;28;20044;-63
2022/06/05 05:15:11;;;;;;;23.35;14.13;;;;;;;;;;5104159;28;20042;-62
2022/06/05 05:17:37;;;;;;;24.85;14.93;;;;;;;;;;5102899;28;20073;-63
2022/06/05 05:20:04;;;;;;;24.50;14.95;;;;;;;;;;5104234;28;20035;-62
2022/06/05 05:22:37;;;;;;;26.88;13.90;;;;;;;;;;5108695;28;20067;-62
2022/06/05 05:25:03;;;;;;;25.88;14.52;;;;;;;;;;5107568;28;20047;-62
2022/06/05 05:27:29;;;;;;;26.48;14.48;;;;;;;;;;5108669;28;20036;-62
2022/06/05 05:29:56;;;;;;;24.27;13.98;;;;;;;;;;5108954;28;20292;-63
2022/06/05 05:32:22;;;;;;;24.70;14.15;;;;;;;;;;5107996;28;20093;-63
2022/06/05 05:34:48;;;;;;;23.15;14.07;;;;;;;;;;5109319;28;20032;-63
2022/06/05 05:37:14;;;;;;;24.17;15.25;;;;;;;;;;5111578;27;20093;-62
2022/06/05 05:42:25;;;;;;;22.10;14.07;;;;;;;;;;5112498;28;20039;-63
2022/06/05 05:44:51;;;;;;;22.88;14.48;;;;;;;;;;5111363;28;20119;-62
2022/06/05 05:47:22;;;;;;;24.00;13.68;;;;;;;;;;5107923;27;20057;-63
2022/06/05 05:49:52;;;;;;;24.00;14.02;;;;;;;;;;5109149;28;20082;-62
2022/06/05 05:52:18;;;;;;;25.50;14.10;;;;;;;;;;5113676;28;20035;-62
2022/06/05 05:54:44;;;;;;;23.83;14.88;;;;;;;;;;5112903;28;20296;-62
2022/06/05 05:57:10;;;;;;;23.88;14.27;;;;;;;;;;5110618;28;20043;-63
2022/06/05 05:59:37;;;;;;;23.00;13.43;;;;;;;;;;5111733;28;20063;-62
2022/06/05 06:02:05;;;;;;;25.70;14.48;;;;;;;;;;5108904;28;20076;-62
2022/06/05 06:04:32;;;;;;;23.02;13.57;;;;;;;;;;5090243;28;20048;-62
2022/06/05 06:06:58;;;;;;;22.90;14.35;;;;;;;;;;5119824;27;20107;-63
2022/06/05 06:09:24;;;;;;;24.13;13.90;;;;;;;;;;5103564;27;20424;-63
2022/06/05 06:11:50;;;;;;;23.83;14.32;;;;;;;;;;5123568;27;21040;-63
2022/06/05 06:14:16;;;;;;;23.02;13.57;;;;;;;;;;5114282;27;20389;-63
2022/06/05 06:16:42;;;;;;;22.20;13.45;;;;;;;;;;5115551;27;20035;-63
2022/06/05 06:19:08;;;;;;;21.92;13.73;;;;;;;;;;5118987;27;20043;-63
2022/06/05 06:21:34;;;;;;;24.23;13.68;;;;;;;;;;5114752;27;20459;-63
2022/06/05 06:24:00;;;;;;;22.17;12.65;;;;;;;;;;5119909;27;20078;-63
2022/06/05 06:26:26;;;;;;;22.77;12.45;;;;;;;;;;5115789;27;20092;-62
2022/06/05 06:28:52;;;;;;;22.30;12.93;;;;;;;;;;5115518;27;20373;-65
2022/06/05 06:31:18;;;;;;;18.95;13.38;;;;;;;;;;5114095;27;20037;-65
2022/06/05 06:33:48;;;;;;;21.52;13.88;;;;;;;;;;5113126;27;20074;-64
2022/06/05 06:36:14;;;;;;;23.38;13.27;;;;;;;;;;5115441;27;20064;-65
2022/06/05 06:38:40;;;;;;;22.10;13.18;;;;;;;;;;5111682;27;20044;-65
2022/06/05 06:41:08;;;;;;;21.77;14.38;;;;;;;;;;5108919;27;20547;-65
2022/06/05 06:43:35;;;;;;;23.77;13.27;;;;;;;;;;5108224;27;20039;-65
2022/06/05 06:46:02;;;;;;;21.02;13.15;;;;;;;;;;5108068;27;20396;-65
2022/06/05 06:48:28;;;;;;;18.70;12.85;;;;;;;;;;5110162;28;20061;-65
2022/06/05 06:50:55;;;;;;;19.85;12.68;;;;;;;;;;5109794;27;20103;-65
2022/06/05 06:53:22;;;;;;;20.75;12.80;;;;;;;;;;5111112;28;20058;-65
2022/06/05 06:55:48;;;;;;;21.45;12.85;;;;;;;;;;5109413;27;20115;-65
2022/06/05 06:58:14;;;;;;;21.58;13.25;;;;;;;;;;5107455;28;20532;-65
2022/06/05 07:00:40;;;;;;;20.00;12.88;;;;;;;;;;5108428;27;20405;-65
2022/06/05 07:03:06;;;;;;;19.50;12.75;;;;;;;;;;5108989;28;20477;-65
2022/06/05 07:05:33;;;;;;;19.88;12.80;;;;;;;;;;5109962;28;20038;-64
2022/06/05 07:07:59;;;;;;;16.38;12.25;;;;;;;;;;5111194;27;20114;-65
2022/06/05 07:10:25;;;;;;;17.13;12.45;;;;;;;;;;5107975;28;20042;-65
2022/06/05 07:12:51;;;;;;;16.30;11.50;;;;;;;;;;5108707;27;20070;-65
2022/06/05 07:15:17;;;;;;;15.77;11.02;;;;;;;;;;5109724;27;20034;-64
2022/06/05 07:17:44;;;;;;;17.05;11.63;;;;;;;;;;5111791;27;20561;-65
2022/06/05 07:20:10;;;;;;;13.57;10.65;;;;;;;;;;5110425;28;20071;-64
2022/06/05 07:22:36;;;;;;;15.77;11.05;;;;;;;;;;5106844;28;20047;-65
2022/06/05 07:25:03;;;;;;;16.48;10.95;;;;;;;;;;5110178;28;20041;-65
2022/06/05 07:27:29;;;;;;;13.75;9.70;;;;;;;;;;5108842;28;20052;-65
2022/06/05 07:29:55;;;;;;;17.60;11.07;;;;;;;;;;5108483;28;20054;-65
2022/06/05 07:32:21;;;;;;;13.82;10.65;;;;;;;;;;5105809;28;20024;-65
2022/06/05 07:34:47;;;;;;;14.40;10.30;;;;;;;;;;5110854;28;20122;-65
2022/06/05 07:37:14;;;;;;;12.27;9.23;;;;;;;;;;5109253;28;20399;-65
2022/06/05 07:39:43;;;;;;;16.17;10.32;;;;;;;;;;5106679;28;20039;-65
2022/06/05 07:42:10;;;;;;;14.38;9.75;;;;;;;;;;5111244;28;20446;-65
2022/06/05 07:44:37;;;;;;;12.20;9.75;;;;;;;;;;5107817;28;20500;-63
2022/06/05 07:47:04;;;;;;;13.07;10.27;;;;;;;;;;5106120;28;20588;-63
2022/06/05 07:49:30;;;;;;;13.20;9.50;;;;;;;;;;5104942;28;20144;-62
2022/06/05 07:54:41;;;;;;;11.95;9.48;;;;;;;;;;5107468;28;20066;-63
2022/06/05 07:57:08;;;;;;;12.70;9.48;;;;;;;;;;5108584;28;20067;-62
2022/06/05 07:59:39;;;;;;;14.13;9.00;;;;;;;;;;5112429;28;20039;-63
2022/06/05 08:02:05;;;;;;;;;;;;;;;;;;5111200;28;20052;-63
2022/06/05 08:04:32;;;;;;;13.70;9.30;;;;;;;;;;5114988;22;20311;-62
2022/06/05 08:06:59;;;;;;;16.38;8.93;;;;;;;;;;5083175;28;20041;-62
2022/06/05 08:09:25;;;;;;;12.30;8.30;;;;;;;;;;5071104;28;20205;-62
2022/06/05 08:11:51;;;;;;;10.80;8.43;;;;;;;;;;5071558;28;20462;-62
2022/06/05 08:14:17;;;;;;;9.15;8.05;;;;;;;;;;5071906;28;20043;-62
2022/06/05 08:16:44;;;;;;;13.07;8.48;;;;;;;;;;5074883;28;20558;-63
2022/06/05 08:19:11;;;;;;;10.82;8.55;;;;;;;;;;5073723;28;20086;-63
2022/06/05 08:21:38;;;;;;;11.50;9.05;;;;;;;;;;5091328;28;20054;-63
2022/06/05 08:24:05;;;;;;;12.50;9.00;;;;;;;;;;5091854;28;20172;-63
2022/06/05 08:26:31;;;;;;;12.15;8.73;;;;;;;;;;5084886;28;20036;-62
2022/06/05 08:28:57;;;;;;;10.45;8.38;;;;;;;;;;5089055;28;20110;-63
2022/06/05 08:31:23;;;;;;;11.80;8.02;;;;;;;;;;5091082;28;20040;-63
2022/06/05 08:33:49;;;;;;;10.27;8.23;;;;;;;;;;5091692;28;20071;-63
2022/06/05 08:36:15;;;;;;;10.35;8.43;;;;;;;;;;5088255;28;20056;-63
2022/06/05 08:41:32;;;;;;;10.55;8.80;;;;;;;;;;5090464;28;20044;-63
2022/06/05 08:44:12;;;;;;;11.50;8.57;;;;;;;;;;5073120;28;20154;-62
2022/06/05 08:46:48;;;;;;;10.07;8.52;;;;;;;;;;5084506;28;20072;-63
2022/06/05 08:49:22;;;;;;;11.95;8.60;;;;;;;;;;5071253;28;20044;-63
2022/06/05 08:51:48;;;;;;;9.98;8.82;;;;;;;;;;5070676;28;20047;-63
2022/06/05 08:54:18;;;;;;;12.98;8.80;;;;;;;;;;5071321;28;20033;-63
2022/06/05 08:56:48;;;;;;;10.98;8.77;;;;;;;;;;5073576;28;20072;-63
2022/06/05 08:59:24;;;;;;;13.00;9.07;;;;;;;;;;5069931;28;20097;-62
2022/06/05 09:01:50;;;;;;;11.65;8.73;;;;;;;;;;5077217;28;20043;-62
2022/06/05 09:04:23;;;;;;;13.50;8.85;;;;;;;;;;5091473;28;20463;-62
2022/06/05 09:06:51;;;;;;;12.13;8.55;;;;;;;;;;5078793;28;20048;-62
2022/06/05 09:09:26;;;;;;;12.88;8.80;;;;;;;;;;5082780;28;20032;-63
2022/06/05 09:11:55;;;;;;;10.00;8.57;;;;;;;;;;5094860;28;20082;-62
2022/06/05 09:14:21;;;;;;;11.45;8.25;;;;;;;;;;5095260;28;20043;-62
2022/06/05 09:16:52;;;;;;;10.00;8.63;;;;;;;;;;5087286;28;20033;-62
2022/06/05 09:19:22;;;;;;;12.20;9.85;;;;;;;;;;5084001;28;20040;-63
2022/06/05 09:21:56;;;;;;;10.27;8.43;;;;;;;;;;5095111;28;20115;-63
2022/06/05 09:24:29;;;;;;;9.23;7.90;;;;;;;;;;5094382;28;20370;-62
2022/06/05 09:27:14;;;;;;;12.65;8.15;;;;;;;;;;5081447;28;20131;-63
2022/06/05 09:29:43;;;;;;;11.20;8.70;;;;;;;;;;5074282;28;20559;-63
2022/06/05 09:32:22;;;;;;;11.02;9.02;;;;;;;;;;5074193;28;20040;-63
2022/06/05 09:34:48;;;;;;;10.30;8.40;;;;;;;;;;5074751;28;20045;-63
2022/06/05 09:37:22;;;;;;;11.20;8.85;;;;;;;;;;5080782;28;20416;-63
2022/06/05 09:39:52;;;;;;;9.15;8.18;;;;;;;;;;5074379;28;20178;-62
2022/06/05 09:42:27;;;;;;;10.18;9.02;;;;;;;;;;5073544;28;20068;-62
2022/06/05 09:45:04;;;;;;;11.10;8.77;;;;;;;;;;5074335;28;20039;-63
2022/06/05 09:47:34;;;;;;;15.13;9.57;;;;;;;;;;5091368;28;20455;-63
2022/06/05 09:50:01;;;;;;;10.77;8.45;;;;;;;;;;5093796;28;20124;-63
2022/06/05 09:52:29;;;;;;;9.93;8.48;;;;;;;;;;5093927;28;20050;-63
2022/06/05 09:55:09;;;;;;;10.35;8.73;;;;;;;;;;5094460;28;20040;-62
2022/06/05 10:00:33;;;;;;;11.63;8.48;;;;;;;;;;5073950;28;20048;-62
2022/06/05 10:03:04;;;;;;;9.23;7.75;;;;;;;;;;5089311;28;20055;-63
2022/06/05 10:05:33;;;;;;;12.30;7.72;;;;;;;;;;5093142;28;20044;-63
2022/06/05 10:08:14;;;;;;;8.50;7.70;;;;;;;;;;5092110;28;20044;-63
2022/06/05 10:10:41;;;;;;;9.32;7.93;;;;;;;;;;5094063;28;20119;-63
2022/06/05 10:13:13;;;;;;;9.30;8.35;;;;;;;;;;5094203;28;20165;-63
2022/06/05 10:15:43;;;;;;;10.95;7.82;;;;;;;;;;5074630;28;20040;-63
2022/06/05 10:18:12;;;;;;;9.43;8.53;;;;;;;;;;5082567;28;20728;-63
2022/06/05 10:20:41;;;;;;;8.88;7.70;;;;;;;;;;5076704;28;20047;-63
2022/06/05 10:23:14;;;;;;;9.20;7.65;;;;;;;;;;5093506;28;20036;-63
2022/06/05 10:25:45;;;;;;;11.43;8.60;;;;;;;;;;5093085;28;20438;-62
2022/06/05 10:28:22;;;;;;;15.25;9.45;;;;;;;;;;5075095;28;20047;-63
2022/06/05 10:30:54;;;;;;;10.25;8.50;;;;;;;;;;5072787;28;20041;-63
2022/06/05 10:33:20;;;;;;;11.30;9.40;;;;;;;;;;5084540;28;20157;-63
2022/06/05 10:36:06;;;;;;;10.25;8.65;;;;;;;;;;5093008;28;20127;-62
2022/06/05 10:39:11;;;;;;;9.93;8.93;;;;;;;;;;5072921;28;20124;-63
2022/06/05 10:41:52;;;;;;;10.38;8.85;;;;;;;;;;4972290;28;20105;-63
2022/06/05 10:44:40;;;;;;;11.90;8.90;;;;;;;;;;4971804;28;20536;-63
2022/06/05 10:47:15;;;;;;;9.65;8.65;;;;;;;;;;5057311;28;20051;-63
2022/06/05 10:49:41;;;;;;;10.77;9.35;;;;;;;;;;5092544;28;20040;-63
2022/06/05 10:52:26;;;;;;;12.07;9.05;;;;;;;;;;5093232;28;20101;-63
2022/06/05 10:54:52;;;;;;;10.30;9.20;;;;;;;;;;5092984;28;20047;-63
2022/06/05 10:57:25;;;;;;;10.23;8.52;;;;;;;;;;5090686;28;20408;-63
2022/06/05 10:59:51;;;;;;;9.63;8.07;;;;;;;;;;5092551;28;20124;-63
2022/06/05 11:02:29;;;;;;;13.15;9.02;;;;;;;;;;5083073;28;20040;-63
2022/06/05 11:05:06;;;;;;;9.82;8.82;;;;;;;;;;5054212;28;20439;-63
2022/06/05 11:07:41;;;;;;;9.90;8.85;;;;;;;;;;5068929;28;20077;-63
2022/06/05 11:10:15;;;;;;;9.10;8.20;;;;;;;;;;5075826;28;20036;-63
2022/06/05 11:16:00;;;;;;;11.05;8.50;;;;;;;;;;5074355;28;20409;-63
2022/06/05 11:18:44;;;;;;;10.40;8.43;;;;;;;;;;5080785;28;20044;-63
2022/06/05 11:21:11;;;;;;;9.82;8.82;;;;;;;;;;5088988;28;20044;-63
2022/06/05 11:23:39;;;;;;;13.07;8.30;;;;;;;;;;5092523;28;20455;-63
2022/06/05 11:26:14;;;;;;;10.63;8.23;;;;;;;;;;5092235;28;20065;-63
2022/06/05 11:28:59;;;;;;;9.85;8.90;;;;;;;;;;5058689;28;20709;-63
2022/06/05 11:31:25;;;;;;;11.45;8.98;;;;;;;;;;5072184;28;20177;-63
2022/06/05 11:33:57;;;;;;;10.43;8.63;;;;;;;;;;5087541;28;20511;-63
2022/06/05 11:36:29;;;;;;;10.43;8.93;;;;;;;;;;5090712;28;20071;-63
2022/06/05 11:39:13;;;;;;;10.75;8.35;;;;;;;;;;5076585;28;20044;-63
2022/06/05 11:41:44;;;;;;;9.75;8.73;;;;;;;;;;5072061;28;20043;-63
2022/06/05 11:44:22;;;;;;;10.43;8.10;;;;;;;;;;5091423;28;20071;-63
2022/06/05 11:47:10;;;;;;;9.48;8.50;;;;;;;;;;5089778;28;20051;-63
2022/06/05 11:49:52;;;;;;;9.98;8.90;;;;;;;;;;5074991;28;20444;-63
2022/06/05 11:52:22;;;;;;;12.35;9.02;;;;;;;;;;5092535;28;20119;-63
2022/06/05 11:54:57;;;;;;;9.60;8.68;;;;;;;;;;5091790;28;20048;-64
2022/06/05 11:57:43;;;;;;;9.55;8.48;;;;;;;;;;5088495;28;20093;-63
2022/06/05 12:00:15;;;;;;;9.60;8.38;;;;;;;;;;5041533;28;20059;-63
2022/06/05 12:02:53;;;;;;;9.88;8.70;;;;;;;;;;5091585;28;20076;-63
2022/06/05 12:05:38;;;;;;;9.85;8.95;;;;;;;;;;5091799;28;20044;-63
2022/06/05 12:08:10;;;;;;;10.07;8.70;;;;;;;;;;5090087;28;20404;-63
2022/06/05 12:10:39;;;;;;;14.27;8.30;;;;;;;;;;5079263;28;20125;-63
2022/06/05 12:13:24;;;;;;;9.02;8.13;;;;;;;;;;5071545;28;20201;-63
2022/06/05 12:16:05;;;;;;;9.18;8.10;;;;;;;;;;5072552;28;20040;-63
2022/06/05 12:18:36;;;;;;;10.75;8.40;;;;;;;;;;5084768;28;20041;-63
2022/06/05 12:21:06;;;;;;;9.00;8.13;;;;;;;;;;5091383;28;20063;-63
2022/06/05 12:23:33;;;;;;;8.88;8.07;;;;;;;;;;5071686;28;20109;-63
2022/06/05 12:26:18;;;;;;;8.95;8.13;;;;;;;;;;5072947;28;20049;-63
2022/06/05 12:28:53;;;;;;;8.55;7.72;;;;;;;;;;5058829;28;20044;-63
2022/06/05 12:31:23;;;;;;;9.60;7.80;;;;;;;;;;5071232;28;20055;-63
2022/06/05 12:33:56;;;;;;;9.13;8.23;;;;;;;;;;5086524;28;20433;-63
2022/06/05 12:36:26;;;;;;;9.40;7.90;;;;;;;;;;5088605;28;20032;-63
2022/06/05 12:38:58;;;;;;;9.45;8.60;;;;;;;;;;5076828;28;20072;-63
2022/06/05 12:41:26;;;;;;;9.20;7.97;;;;;;;;;;5089948;28;20040;-63
2022/06/05 12:44:10;;;;;;;8.45;7.45;;;;;;;;;;5094171;28;20043;-64
2022/06/05 12:46:42;;;;;;;8.20;7.40;;;;;;;;;;5091782;28;20544;-63
2022/06/05 12:49:28;;;;;;;8.23;7.47;;;;;;;;;;5078740;28;20444;-63
2022/06/05 12:52:03;;;;;;;8.40;7.50;;;;;;;;;;5075221;28;20401;-63
2022/06/05 12:54:58;;;;;;;8.52;7.57;;;;;;;;;;5092845;28;20040;-63
2022/06/05 12:57:30;;;;;;;9.90;7.55;;;;;;;;;;5082556;28;20048;-64
2022/06/05 13:00:19;;;;;;;8.82;7.80;;;;;;;;;;5077281;28;20371;-63
2022/06/05 13:02:52;;;;;;;8.60;7.25;;;;;;;;;;5051553;28;20089;-63
2022/06/05 13:05:39;;;;;;;8.20;7.43;;;;;;;;;;5077349;28;20040;-64
2022/06/05 13:08:12;;;;;;;8.07;7.20;;;;;;;;;;5081258;28;20048;-62
2022/06/05 13:10:45;;;;;;;8.77;7.53;;;;;;;;;;5080214;28;20405;-62
2022/06/05 13:13:17;;;;;;;9.65;7.43;;;;;;;;;;5090444;28;20040;-62
2022/06/05 13:15:44;;;;;;;8.30;7.38;;;;;;;;;;5088187;28;20389;-62
2022/06/05 13:18:24;;;;;;;9.48;7.28;;;;;;;;;;5079386;28;20045;-62
2022/06/05 13:20:50;;;;;;;;;;;;;;;;;;5087208;28;20047;-63
2022/06/05 13:23:16;;;;;;;8.02;7.25;;;;;;;;;;5084617;28;19916;-62
2022/06/05 13:25:54;;;;;;;8.85;7.28;;;;;;;;;;5076960;28;20047;-62
2022/06/05 13:28:32;;;;;;;8.75;7.38;;;;;;;;;;5079695;28;20045;-62
2022/06/05 13:31:01;;;;;;;8.02;7.22;;;;;;;;;;5074398;28;20033;-62
2022/06/05 13:33:31;;;;;;;8.13;7.20;;;;;;;;;;5083590;28;20039;-62
2022/06/05 13:36:03;;;;;;;9.50;7.15;;;;;;;;;;5081014;28;20532;-62
2022/06/05 13:38:40;;;;;;;9.00;7.28;;;;;;;;;;5081378;28;20464;-62
2022/06/05 13:41:17;;;;;;;9.43;7.40;;;;;;;;;;5084058;28;20048;-62
2022/06/05 13:43:46;;;;;;;8.13;6.47;;;;;;;;;;5086365;28;20044;-62
2022/06/05 13:46:12;;;;;;;9.82;7.45;;;;;;;;;;5084299;28;20076;-62
2022/06/05 13:48:52;;;;;;;8.18;7.25;;;;;;;;;;5080995;28;20043;-62
2022/06/05 13:51:25;;;;;;;7.90;7.18;;;;;;;;;;5082495;28;20047;-62
2022/06/05 13:54:14;;;;;;;7.43;6.70;;;;;;;;;;5085774;28;20043;-62
2022/06/05 13:56:55;;;;;;;7.82;7.13;;;;;;;;;;5076470;28;20041;-62
2022/06/05 13:59:25;;;;;;;7.63;6.72;;;;;;;;;;5083372;28;20471;-62
2022/06/05 14:02:06;;;;;;;7.72;6.85;;;;;;;;;;5091513;28;20109;-62
2022/06/05 14:04:32;;;;;;;7.75;6.95;;;;;;;;;;5108004;22;20040;-66
2022/06/05 14:07:01;;;;;;;9.32;6.93;;;;;;;;;;5106815;28;20058;-65
2022/06/05 14:09:35;;;;;;;8.70;7.45;;;;;;;;;;5102388;28;20040;-65
2022/06/05 14:12:01;;;;;;;9.80;7.50;;;;;;;;;;5104024;28;20036;-66
2022/06/05 14:14:41;;;;;;;7.90;7.20;;;;;;;;;;5100983;28;20032;-66
2022/06/05 14:17:09;;;;;;;8.95;7.85;;;;;;;;;;5096890;28;20036;-66
2022/06/05 14:19:37;;;;;;;8.43;7.60;;;;;;;;;;5087277;28;20039;-66
2022/06/05 14:22:15;;;;;;;8.50;7.68;;;;;;;;;;5098358;28;20059;-66
2022/06/05 14:24:42;;;;;;;7.85;7.03;;;;;;;;;;5091520;28;20040;-66
2022/06/05 14:27:13;;;;;;;9.05;7.53;;;;;;;;;;5096463;28;20620;-66
2022/06/05 14:29:50;;;;;;;8.50;7.68;;;;;;;;;;5099149;28;20047;-66
2022/06/05 14:32:21;;;;;;;9.05;7.95;;;;;;;;;;5093448;28;20043;-65
2022/06/05 14:34:47;;;;;;;11.10;8.60;;;;;;;;;;5095121;28;20161;-65
2022/06/05 14:37:19;;;;;;;10.48;8.32;;;;;;;;;;5097855;28;20044;-65
2022/06/05 14:39:46;;;;;;;10.77;8.15;;;;;;;;;;5092782;28;20130;-65
2022/06/05 14:42:14;;;;;;;9.88;8.88;;;;;;;;;;5089809;28;20156;-65
2022/06/05 14:44:47;;;;;;;9.85;8.85;;;;;;;;;;5096762;28;20038;-65
2022/06/05 14:47:24;;;;;;;9.98;8.73;;;;;;;;;;5093719;28;20042;-65
2022/06/05 14:50:09;;;;;;;10.75;9.43;;;;;;;;;;5097125;28;20040;-65
2022/06/05 14:53:07;;;;;;;10.45;9.30;;;;;;;;;;5096112;28;20545;-65
2022/06/05 14:59:02;;;;;;;11.45;9.85;;;;;;;;;;5093033;28;20413;-65
2022/06/05 15:01:34;;;;;;;11.65;9.57;;;;;;;;;;5027544;28;20785;-65
2022/06/05 15:04:10;;;;;;;12.82;10.27;;;;;;;;;;5091333;28;20046;-65
2022/06/05 15:06:43;;;;;;;11.05;9.88;;;;;;;;;;5087048;28;20509;-65
2022/06/05 15:09:13;;;;;;;12.30;10.50;;;;;;;;;;5077371;28;20047;-64